createdAt,value
2022-09-04T00:01:03.099Z,8.30
2022-09-04T00:03:19.877Z,9.10
2022-09-04T00:05:29.292Z,8.93
2022-09-04T00:07:39.366Z,8.83
2022-09-04T00:09:55.320Z,8.00
2022-09-04T00:12:05.395Z,8.80
2022-09-04T00:14:11.516Z,9.50
2022-09-04T00:16:20.634Z,9.10
2022-09-04T00:18:30.167Z,8.83
2022-09-04T00:20:41.325Z,9.63
2022-09-04T00:22:52.411Z,9.13
2022-09-04T00:25:03.975Z,10.37
2022-09-04T00:27:11.666Z,10.00
2022-09-04T00:29:24.784Z,10.47
2022-09-04T00:31:33.933Z,10.45
2022-09-04T00:33:42.172Z,11.20
2022-09-04T00:35:54.771Z,11.70
2022-09-04T00:38:02.316Z,11.17
2022-09-04T00:40:10.653Z,10.60
2022-09-04T00:42:30.040Z,10.60
2022-09-04T00:44:46.631Z,10.83
2022-09-04T00:47:21.314Z,11.55
2022-09-04T00:49:59.614Z,11.40
2022-09-04T00:52:11.937Z,11.17
2022-09-04T00:54:32.232Z,11.10
2022-09-04T00:57:02.062Z,12.23
2022-09-04T00:59:12.038Z,11.97
2022-09-04T01:01:20.944Z,12.20
2022-09-04T01:03:41.467Z,12.17
2022-09-04T01:06:17.768Z,12.80
2022-09-04T01:08:28.732Z,13.23
2022-09-04T01:10:41.755Z,14.30
2022-09-04T01:12:52.803Z,13.43
2022-09-04T01:15:01.154Z,14.10
2022-09-04T01:17:15.380Z,13.70
2022-09-04T01:19:31.372Z,12.52
2022-09-04T01:22:12.824Z,13.20
2022-09-04T01:24:30.764Z,12.70
2022-09-04T01:26:41.289Z,12.60
2022-09-04T01:28:54.200Z,12.68
2022-09-04T01:31:05.128Z,12.80
2022-09-04T01:33:15.443Z,12.85
2022-09-04T01:35:28.725Z,11.87
2022-09-04T01:37:42.919Z,11.98
2022-09-04T01:39:52.392Z,12.53
2022-09-04T01:42:01.958Z,11.75
2022-09-04T01:44:07.237Z,12.07
2022-09-04T01:46:48.054Z,12.47
2022-09-04T01:48:59.326Z,11.30
2022-09-04T01:51:13.851Z,10.90
2022-09-04T01:53:23.722Z,10.40
2022-09-04T01:55:35.477Z,11.20
2022-09-04T01:57:55.632Z,10.75
2022-09-04T02:00:05.505Z,10.57
2022-09-04T02:02:16.543Z,10.00
2022-09-04T02:04:28.465Z,11.10
2022-09-04T02:06:39.187Z,10.05
2022-09-04T02:09:01.008Z,10.93
2022-09-04T02:11:10.114Z,11.20
2022-09-04T02:13:23.162Z,10.43
2022-09-04T02:15:39.182Z,11.83
2022-09-04T02:17:46.818Z,11.50
2022-09-04T02:20:04.696Z,10.52
2022-09-04T02:22:17.772Z,9.75
2022-09-04T02:24:28.607Z,9.80
2022-09-04T02:26:37.936Z,9.07
2022-09-04T02:28:53.059Z,9.38
2022-09-04T02:31:00.882Z,8.40
2022-09-04T02:33:15.160Z,8.50
2022-09-04T02:35:23.356Z,9.27
2022-09-04T02:37:33.453Z,8.20
2022-09-04T02:39:46.849Z,8.40
2022-09-04T02:42:00.590Z,8.20
2022-09-04T02:44:22.811Z,9.23
2022-09-04T02:46:31.315Z,7.88
2022-09-04T02:48:46.299Z,9.02
2022-09-04T02:51:07.102Z,7.70
2022-09-04T02:53:24.680Z,9.13
2022-09-04T02:55:46.592Z,9.70
2022-09-04T02:58:00.865Z,9.38
2022-09-04T03:00:14.550Z,8.93
2022-09-04T03:02:29.053Z,9.70
2022-09-04T03:04:39.058Z,9.02
2022-09-04T03:06:50.161Z,9.00
2022-09-04T03:09:00.593Z,8.40
2022-09-04T03:11:09.534Z,8.38
2022-09-04T03:13:19.136Z,8.07
2022-09-04T03:15:28.382Z,7.30
2022-09-04T03:17:41.652Z,7.90
2022-09-04T03:19:51.574Z,7.50
2022-09-04T03:21:58.712Z,8.10
2022-09-04T03:24:08.059Z,6.93
2022-09-04T03:26:19.914Z,7.50
2022-09-04T03:28:34.102Z,7.72
2022-09-04T03:30:40.168Z,8.52
2022-09-04T03:32:52.338Z,7.70
2022-09-04T03:35:02.502Z,7.45
2022-09-04T03:37:27.432Z,7.60
2022-09-04T03:39:41.521Z,7.65
2022-09-04T03:41:52.308Z,7.47
2022-09-04T03:44:08.334Z,7.23
2022-09-04T03:46:24.065Z,7.60
2022-09-04T03:48:43.061Z,7.57
2022-09-04T03:50:52.593Z,7.50
2022-09-04T03:53:00.985Z,6.78
2022-09-04T03:55:26.716Z,6.65
2022-09-04T03:57:39.484Z,7.35
2022-09-04T03:59:55.863Z,8.18
2022-09-04T04:02:06.503Z,8.50
2022-09-04T04:04:38.910Z,8.45
2022-09-04T04:06:47.348Z,7.32
2022-09-04T04:09:05.327Z,7.32
2022-09-04T04:11:26.552Z,7.50
2022-09-04T04:13:55.781Z,7.28
2022-09-04T04:16:13.300Z,7.30
2022-09-04T04:18:49.522Z,7.45
2022-09-04T04:21:01.488Z,7.07
2022-09-04T04:23:30.604Z,7.13
2022-09-04T04:25:52.648Z,7.95
2022-09-04T04:28:17.205Z,6.85
2022-09-04T04:30:20.607Z,6.70
2022-09-04T04:33:02.313Z,7.70
2022-09-04T04:35:18.013Z,7.20
2022-09-04T04:37:32.872Z,7.50
2022-09-04T04:39:41.097Z,7.10
2022-09-04T04:42:10.053Z,8.18
2022-09-04T04:44:18.043Z,7.88
2022-09-04T04:46:36.715Z,7.47
2022-09-04T04:49:05.647Z,7.43
2022-09-04T04:51:24.363Z,6.75
2022-09-04T04:53:32.584Z,7.95
2022-09-04T04:55:42.081Z,7.15
2022-09-04T04:58:16.598Z,7.75
2022-09-04T05:00:27.505Z,7.60
2022-09-04T05:02:36.582Z,6.95
2022-09-04T05:04:46.979Z,7.25
2022-09-04T05:06:57.695Z,8.05
2022-09-04T05:09:10.557Z,7.55
2022-09-04T05:11:25.766Z,7.85
2022-09-04T05:13:40.624Z,7.25
2022-09-04T05:16:07.991Z,8.00
2022-09-04T05:18:20.920Z,7.00
2022-09-04T05:20:37.140Z,7.35
2022-09-04T05:22:47.985Z,7.80
2022-09-04T05:25:01.792Z,7.10
2022-09-04T05:27:11.570Z,7.85
2022-09-04T05:29:22.642Z,7.80
2022-09-04T05:31:38.268Z,6.65
2022-09-04T05:33:49.668Z,10.00
2022-09-04T05:35:59.649Z,8.05
2022-09-04T05:38:10.640Z,7.43
2022-09-04T05:40:24.013Z,7.45
2022-09-04T05:42:45.395Z,7.90
2022-09-04T05:44:59.518Z,6.95
2022-09-04T05:47:15.849Z,6.80
2022-09-04T05:49:33.128Z,7.43
2022-09-04T05:52:04.426Z,7.80
2022-09-04T05:54:40.680Z,7.82
2022-09-04T05:57:12.964Z,7.53
2022-09-04T05:59:42.497Z,7.55
2022-09-04T06:02:11.945Z,8.60
2022-09-04T06:04:34.118Z,9.17
2022-09-04T06:06:44.935Z,8.10
2022-09-04T06:09:08.365Z,8.35
2022-09-04T06:11:38.110Z,8.57
2022-09-04T06:13:55.497Z,9.35
2022-09-04T06:16:16.141Z,8.87
2022-09-04T06:18:39.280Z,8.73
2022-09-04T06:21:14.143Z,8.85
2022-09-04T06:23:33.263Z,8.80
2022-09-04T06:25:54.788Z,8.00
2022-09-04T06:28:32.060Z,8.63
2022-09-04T06:30:43.981Z,8.40
2022-09-04T06:32:59.231Z,8.73
2022-09-04T06:35:22.884Z,8.57
2022-09-04T06:37:36.434Z,7.57
2022-09-04T06:39:52.133Z,7.80
2022-09-04T06:42:12.419Z,8.27
2022-09-04T06:44:32.253Z,6.70
2022-09-04T06:46:41.616Z,7.80
2022-09-04T06:48:54.502Z,7.10
2022-09-04T06:51:09.517Z,8.30
2022-09-04T06:53:21.223Z,6.93
2022-09-04T06:55:32.410Z,8.60
2022-09-04T06:58:00.731Z,6.50
2022-09-04T07:00:07.510Z,6.27
2022-09-04T07:02:24.867Z,5.80
2022-09-04T07:04:44.004Z,5.70
2022-09-04T07:07:02.115Z,5.80
2022-09-04T07:09:16.272Z,5.30
2022-09-04T07:11:25.491Z,5.80
2022-09-04T07:13:51.902Z,5.37
2022-09-04T07:16:16.888Z,5.47
2022-09-04T07:18:49.363Z,5.50
2022-09-04T07:21:03.056Z,5.67
2022-09-04T07:23:22.617Z,5.80
2022-09-04T07:25:34.290Z,5.83
2022-09-04T07:27:51.950Z,5.83
2022-09-04T07:30:01.487Z,5.70
2022-09-04T07:32:11.855Z,5.60
2022-09-04T07:34:22.378Z,5.93
2022-09-04T07:36:32.880Z,5.23
2022-09-04T07:38:41.707Z,4.70
2022-09-04T07:40:47.359Z,5.03
2022-09-04T07:42:55.138Z,5.20
2022-09-04T07:45:05.889Z,4.63
2022-09-04T07:47:18.057Z,4.53
2022-09-04T07:49:28.538Z,4.73
2022-09-04T07:51:38.899Z,4.77
2022-09-04T07:54:01.156Z,5.40
2022-09-04T07:56:10.116Z,5.00
2022-09-04T07:58:50.421Z,5.00
2022-09-04T08:01:10.296Z,5.00
2022-09-04T08:03:33.832Z,4.63
2022-09-04T08:05:41.339Z,4.60
2022-09-04T08:08:07.084Z,5.10
2022-09-04T08:10:26.677Z,4.57
2022-09-04T08:12:56.218Z,4.43
2022-09-04T08:15:10.793Z,6.17
2022-09-04T08:17:38.755Z,4.33
2022-09-04T08:19:50.928Z,4.77
2022-09-04T08:21:54.828Z,4.47
2022-09-04T08:24:33.806Z,4.40
2022-09-04T08:26:45.496Z,4.70
2022-09-04T08:29:03.043Z,4.40
2022-09-04T08:31:09.867Z,4.77
2022-09-04T08:33:33.713Z,4.23
2022-09-04T08:35:48.867Z,4.70
2022-09-04T08:38:19.532Z,5.40
2022-09-04T08:41:00.671Z,4.43
2022-09-04T08:43:29.799Z,4.27
2022-09-04T08:46:04.556Z,4.03
2022-09-04T08:48:54.934Z,3.63
2022-09-04T08:51:42.664Z,4.00
2022-09-04T08:54:13.884Z,4.00
2022-09-04T08:56:27.469Z,3.00
2022-09-04T08:59:11.931Z,3.60
2022-09-04T09:01:44.453Z,3.57
2022-09-04T09:04:27.357Z,3.53
2022-09-04T09:07:06.156Z,3.60
2022-09-04T09:09:57.047Z,3.43
2022-09-04T09:12:41.026Z,2.90
2022-09-04T09:15:18.365Z,3.60
2022-09-04T09:17:37.279Z,3.70
2022-09-04T09:19:47.053Z,3.87
2022-09-04T09:22:19.412Z,4.10
2022-09-04T09:24:52.521Z,3.83
2022-09-04T09:27:16.820Z,4.00
2022-09-04T09:29:43.682Z,3.90
2022-09-04T09:32:30.729Z,4.40
2022-09-04T09:35:21.247Z,3.73
2022-09-04T09:37:40.562Z,3.70
2022-09-04T09:40:14.013Z,4.30
2022-09-04T09:42:49.443Z,3.97
2022-09-04T09:45:38.408Z,3.60
2022-09-04T09:48:13.325Z,3.63
2022-09-04T09:50:58.829Z,3.40
2022-09-04T09:53:52.189Z,3.30
2022-09-04T09:56:30.749Z,3.10
2022-09-04T09:59:10.100Z,2.87
2022-09-04T10:01:37.392Z,3.00
2022-09-04T10:04:12.604Z,3.10
2022-09-04T10:06:53.944Z,2.80
2022-09-04T10:09:37.277Z,3.37
2022-09-04T10:12:07.920Z,3.37
2022-09-04T10:14:37.216Z,3.03
2022-09-04T10:17:14.525Z,3.00
2022-09-04T10:19:42.952Z,2.63
2022-09-04T10:22:14.924Z,3.07
2022-09-04T10:24:57.489Z,2.33
2022-09-04T10:27:27.548Z,2.00
2022-09-04T10:29:45.545Z,2.70
2022-09-04T10:32:34.505Z,2.37
2022-09-04T10:34:57.458Z,2.60
2022-09-04T10:37:17.477Z,3.30
2022-09-04T10:39:47.109Z,3.00
2022-09-04T10:42:05.932Z,3.20
2022-09-04T10:44:27.917Z,3.23
2022-09-04T10:46:38.098Z,2.80
2022-09-04T10:49:10.962Z,2.80
2022-09-04T10:51:37.406Z,2.93
2022-09-04T10:54:07.733Z,2.80
2022-09-04T10:56:22.999Z,2.50
2022-09-04T10:58:59.083Z,2.73
2022-09-04T11:01:39.730Z,2.87
2022-09-04T11:04:00.989Z,2.60
2022-09-04T11:06:42.264Z,2.70
2022-09-04T11:09:06.561Z,2.83
2022-09-04T11:11:23.425Z,2.70
2022-09-04T11:13:56.265Z,2.70
2022-09-04T11:16:23.222Z,3.03
2022-09-04T11:18:56.901Z,3.07
2022-09-04T11:21:34.752Z,2.97
2022-09-04T11:24:14.955Z,2.63
2022-09-04T11:27:11.164Z,3.03
2022-09-04T11:29:33.372Z,2.83
2022-09-04T11:31:49.431Z,2.73
2022-09-04T11:34:34.053Z,2.90
2022-09-04T11:36:54.473Z,3.10
2022-09-04T11:39:36.243Z,2.90
2022-09-04T11:42:08.695Z,2.50
2022-09-04T11:44:35.172Z,2.80
2022-09-04T11:47:12.090Z,2.80
2022-09-04T11:49:31.330Z,2.40
2022-09-04T11:52:00.244Z,2.53
2022-09-04T11:54:46.588Z,2.60
2022-09-04T11:57:05.230Z,2.53
2022-09-04T11:59:34.644Z,3.10
2022-09-04T12:01:55.156Z,2.57
2022-09-04T12:04:25.792Z,2.80
2022-09-04T12:06:44.630Z,2.73
2022-09-04T12:09:18.271Z,3.50
2022-09-04T12:11:42.552Z,3.30
2022-09-04T12:14:12.100Z,2.67
2022-09-04T12:16:44.583Z,2.50
2022-09-04T12:19:26.908Z,2.33
2022-09-04T12:21:58.029Z,2.37
2022-09-04T12:24:21.560Z,2.33
2022-09-04T12:26:57.056Z,2.90
2022-09-04T12:29:28.484Z,2.70
2022-09-04T12:32:03.674Z,2.60
2022-09-04T12:34:47.442Z,2.63
2022-09-04T12:37:16.166Z,2.73
2022-09-04T12:39:50.193Z,2.67
2022-09-04T12:42:02.342Z,2.60
2022-09-04T12:44:12.998Z,2.70
2022-09-04T12:46:35.678Z,2.67
2022-09-04T12:48:48.095Z,2.30
2022-09-04T12:50:58.591Z,2.60
2022-09-04T12:53:25.792Z,2.70
2022-09-04T12:55:39.360Z,2.63
2022-09-04T12:57:55.729Z,2.70
2022-09-04T13:00:08.056Z,2.23
2022-09-04T13:02:24.002Z,2.77
2022-09-04T13:04:34.179Z,2.37
2022-09-04T13:06:52.780Z,2.73
2022-09-04T13:09:11.342Z,2.80
2022-09-04T13:11:22.143Z,2.47
2022-09-04T13:13:39.390Z,2.40
2022-09-04T13:15:52.938Z,2.80
2022-09-04T13:18:12.471Z,2.57
2022-09-04T13:20:24.686Z,2.60
2022-09-04T13:22:39.411Z,2.67
2022-09-04T13:24:53.104Z,2.63
2022-09-04T13:27:09.133Z,2.70
2022-09-04T13:29:25.463Z,2.90
2022-09-04T13:31:51.167Z,2.90
2022-09-04T13:34:03.501Z,2.90
2022-09-04T13:36:19.095Z,2.93
2022-09-04T13:39:03.533Z,2.30
2022-09-04T13:41:33.352Z,2.80
2022-09-04T13:44:09.375Z,2.43
2022-09-04T13:46:18.760Z,2.70
2022-09-04T13:48:34.264Z,2.70
2022-09-04T13:50:41.019Z,2.77
2022-09-04T13:52:50.071Z,2.60
2022-09-04T13:55:03.056Z,3.00
2022-09-04T13:57:11.314Z,2.87
2022-09-04T13:59:20.563Z,2.50
2022-09-04T14:01:27.874Z,2.73
2022-09-04T14:03:37.358Z,2.70
2022-09-04T14:05:40.456Z,2.87
2022-09-04T14:07:47.525Z,2.47
2022-09-04T14:09:53.830Z,2.70
2022-09-04T14:12:11.327Z,3.17
2022-09-04T14:14:37.453Z,2.70
2022-09-04T14:16:41.698Z,2.77
2022-09-04T14:19:15.703Z,2.77
2022-09-04T14:21:30.658Z,2.57
2022-09-04T14:23:45.819Z,2.40
2022-09-04T14:25:55.215Z,2.73
2022-09-04T14:28:04.001Z,3.30
2022-09-04T14:30:09.900Z,2.90
2022-09-04T14:32:23.215Z,2.97
2022-09-04T14:34:37.531Z,2.77
2022-09-04T14:36:56.310Z,2.53
2022-09-04T14:39:13.521Z,2.40
2022-09-04T14:41:35.828Z,2.60
2022-09-04T14:43:48.718Z,2.57
2022-09-04T14:46:07.099Z,2.77
2022-09-04T14:48:12.645Z,2.70
2022-09-04T14:50:17.859Z,2.90
2022-09-04T14:52:24.649Z,2.47
2022-09-04T14:54:30.546Z,2.70
2022-09-04T14:56:41.030Z,2.63
2022-09-04T14:58:50.867Z,3.03
2022-09-04T15:01:00.157Z,2.97
2022-09-04T15:03:15.071Z,2.40
2022-09-04T15:05:24.823Z,2.80
2022-09-04T15:07:51.031Z,2.90
2022-09-04T15:09:55.210Z,2.50
2022-09-04T15:12:25.628Z,2.77
2022-09-04T15:14:34.322Z,2.70
2022-09-04T15:16:50.562Z,2.67
2022-09-04T15:18:58.978Z,2.47
2022-09-04T15:21:08.700Z,2.63
2022-09-04T15:23:18.689Z,2.60
2022-09-04T15:25:57.800Z,2.50
2022-09-04T15:28:06.718Z,2.57
2022-09-04T15:30:20.468Z,2.80
2022-09-04T15:32:27.100Z,2.70
2022-09-04T15:34:32.175Z,2.80
2022-09-04T15:36:36.079Z,2.67
2022-09-04T15:38:39.303Z,2.77
2022-09-04T15:41:12.800Z,2.80
2022-09-04T15:43:22.711Z,2.80
2022-09-04T15:45:36.021Z,3.20
2022-09-04T15:47:55.949Z,2.70
2022-09-04T15:50:04.389Z,2.70
2022-09-04T15:52:22.913Z,2.60
2022-09-04T15:54:50.933Z,2.90
2022-09-04T15:57:02.610Z,2.63
2022-09-04T15:59:15.836Z,2.47
2022-09-04T16:01:24.940Z,2.50
2022-09-04T16:03:36.514Z,2.70
2022-09-04T16:05:44.883Z,2.57
2022-09-04T16:08:03.686Z,2.87
2022-09-04T16:10:15.934Z,2.80
2022-09-04T16:12:23.079Z,2.80
2022-09-04T16:14:31.591Z,2.53
2022-09-04T16:16:42.550Z,2.60
2022-09-04T16:18:53.180Z,2.63
2022-09-04T16:21:00.028Z,2.90
2022-09-04T16:23:08.299Z,2.80
2022-09-04T16:25:23.940Z,2.30
2022-09-04T16:27:30.469Z,2.70
2022-09-04T16:29:36.946Z,2.90
2022-09-04T16:31:41.285Z,2.60
2022-09-04T16:33:50.157Z,2.83
2022-09-04T16:35:55.750Z,2.60
2022-09-04T16:38:06.712Z,2.70
2022-09-04T16:40:28.400Z,2.60
2022-09-04T16:42:40.246Z,2.63
2022-09-04T16:44:48.379Z,3.00
2022-09-04T16:47:04.717Z,2.70
2022-09-04T16:49:13.432Z,3.10
2022-09-04T16:51:41.008Z,3.00
2022-09-04T16:53:51.818Z,3.10
2022-09-04T16:55:59.947Z,2.67
2022-09-04T16:58:35.432Z,2.90
2022-09-04T17:00:54.468Z,3.17
2022-09-04T17:03:18.260Z,3.50
2022-09-04T17:05:34.941Z,3.90
2022-09-04T17:07:45.763Z,3.60
2022-09-04T17:09:58.696Z,3.43
2022-09-04T17:12:17.902Z,2.97
2022-09-04T17:14:26.352Z,3.10
2022-09-04T17:16:38.277Z,2.60
2022-09-04T17:18:47.824Z,3.00
2022-09-04T17:24:36.588Z,3.20
2022-09-04T17:28:18.986Z,2.90
2022-09-04T17:29:08.058Z,3.30
2022-09-04T17:29:08.637Z,3.20
2022-09-04T17:31:08.077Z,3.10
2022-09-04T17:36:49.262Z,3.00
2022-09-04T17:40:35.701Z,3.83
2022-09-04T17:40:42.935Z,3.70
2022-09-04T17:41:33.271Z,4.00
2022-09-04T17:43:36.575Z,3.60
2022-09-04T17:45:51.266Z,3.30
2022-09-04T17:48:02.402Z,3.00
2022-09-04T17:50:13.836Z,3.13
2022-09-04T17:52:27.062Z,3.30
2022-09-04T17:54:33.500Z,3.40
2022-09-04T17:56:41.709Z,3.70
2022-09-04T17:58:50.364Z,4.30
2022-09-04T18:01:15.115Z,3.70
2022-09-04T18:03:29.699Z,3.60
2022-09-04T18:05:39.993Z,3.43
2022-09-04T18:08:08.252Z,3.80
2022-09-04T18:10:20.986Z,4.10
2022-09-04T18:12:31.368Z,3.70
2022-09-04T18:14:40.509Z,3.97
2022-09-04T18:17:11.765Z,4.80
2022-09-04T18:19:21.957Z,3.80
2022-09-04T18:21:28.601Z,3.87
2022-09-04T18:23:51.171Z,3.70
2022-09-04T18:25:59.436Z,4.27
2022-09-04T18:28:12.696Z,4.90
2022-09-04T18:36:11.543Z,4.53
2022-09-04T18:37:06.096Z,4.60
2022-09-04T18:37:21.334Z,4.60
2022-09-04T18:37:51.257Z,4.27
2022-09-04T18:40:07.189Z,4.30
2022-09-04T18:46:15.100Z,4.37
2022-09-04T18:50:31.292Z,4.30
2022-09-04T18:50:44.270Z,4.10
2022-09-04T18:50:50.078Z,4.40
2022-09-04T18:52:06.724Z,4.30
2022-09-04T18:54:13.024Z,4.50
2022-09-04T18:56:20.795Z,4.93
2022-09-04T18:58:45.972Z,4.23
2022-09-04T19:00:54.029Z,4.10
2022-09-04T19:03:10.302Z,4.40
2022-09-04T19:05:15.096Z,4.03
2022-09-04T19:07:27.517Z,4.20
2022-09-04T19:09:48.619Z,4.47
2022-09-04T19:12:07.548Z,4.57
2022-09-04T19:14:15.375Z,3.70
2022-09-04T19:16:25.678Z,3.73
2022-09-04T19:18:41.721Z,3.57
2022-09-04T19:20:50.070Z,3.80
2022-09-04T19:22:55.812Z,3.47
2022-09-04T19:25:05.350Z,3.70
2022-09-04T19:27:27.358Z,3.47
2022-09-04T19:29:38.983Z,3.63
2022-09-04T19:31:45.009Z,3.57
2022-09-04T19:33:54.002Z,3.30
2022-09-04T19:36:05.767Z,3.47
2022-09-04T19:43:16.191Z,3.40
2022-09-04T19:45:34.807Z,3.60
2022-09-04T19:45:53.746Z,3.53
2022-09-04T19:46:17.278Z,3.20
2022-09-04T19:48:26.326Z,3.50
2022-09-04T19:53:23.138Z,3.67
2022-09-04T19:53:24.123Z,3.30
2022-09-04T19:55:33.043Z,3.50
2022-09-04T19:57:42.792Z,3.60
2022-09-04T19:59:51.385Z,4.00
2022-09-04T20:01:58.153Z,3.53
2022-09-04T20:04:12.408Z,3.33
2022-09-04T20:06:22.546Z,3.73
2022-09-04T20:08:32.662Z,3.50
2022-09-04T20:10:44.428Z,3.23
2022-09-04T20:12:51.266Z,4.00
2022-09-04T20:15:02.854Z,4.27
2022-09-04T20:17:21.658Z,3.80
2022-09-04T20:19:28.941Z,3.90
2022-09-04T20:21:45.059Z,4.00
2022-09-04T20:23:53.289Z,4.03
2022-09-04T20:26:04.335Z,4.23
2022-09-04T20:28:22.929Z,4.60
2022-09-04T20:30:27.180Z,4.80
2022-09-04T20:32:34.765Z,4.23
2022-09-04T20:34:44.631Z,4.83
2022-09-04T20:36:52.481Z,4.33
2022-09-04T20:38:59.802Z,4.23
2022-09-04T20:41:12.724Z,4.30
2022-09-04T20:43:28.053Z,4.30
2022-09-04T20:47:21.691Z,4.03
2022-09-04T20:52:48.977Z,4.17
2022-09-04T20:53:07.267Z,4.63
2022-09-04T20:53:14.897Z,4.30
2022-09-04T20:55:35.154Z,3.73
2022-09-04T21:03:05.369Z,3.40
2022-09-04T21:03:13.706Z,3.97
2022-09-04T21:03:22.399Z,3.67
2022-09-04T21:05:41.419Z,4.30
2022-09-04T21:07:49.194Z,4.70
2022-09-04T21:10:05.823Z,4.07
2022-09-04T21:12:32.815Z,3.60
2022-09-04T21:14:45.778Z,4.10
2022-09-04T21:17:33.525Z,3.90
2022-09-04T21:20:04.042Z,4.00
2022-09-04T21:22:33.442Z,4.30
2022-09-04T21:24:54.801Z,4.90
2022-09-04T21:27:28.500Z,4.83
2022-09-04T21:29:59.327Z,4.93
2022-09-04T21:32:21.388Z,4.80
2022-09-04T21:34:45.692Z,4.50
2022-09-04T21:36:55.409Z,4.90
2022-09-04T21:39:28.437Z,4.60
2022-09-04T21:41:54.799Z,4.70
2022-09-04T21:44:34.398Z,4.23
2022-09-04T21:47:16.055Z,5.13
2022-09-04T21:49:36.838Z,4.10
2022-09-04T21:51:58.860Z,4.83
2022-09-04T21:54:37.535Z,4.60
2022-09-04T22:02:28.791Z,3.87
2022-09-04T22:02:36.344Z,4.43
2022-09-04T22:02:55.604Z,4.63
2022-09-04T22:05:13.077Z,4.27
2022-09-04T22:10:52.863Z,4.23
2022-09-04T22:13:29.848Z,4.50
2022-09-04T22:13:38.742Z,4.87
2022-09-04T22:15:31.620Z,4.20
2022-09-04T22:18:04.961Z,4.27
2022-09-04T22:20:34.860Z,4.37
2022-09-04T22:23:05.781Z,4.13
2022-09-04T22:25:27.897Z,4.73
2022-09-04T22:28:07.566Z,4.77
2022-09-04T22:30:14.847Z,4.60
2022-09-04T22:32:53.239Z,4.27
2022-09-04T22:35:43.394Z,4.77
2022-09-04T22:38:30.637Z,4.50
2022-09-04T22:40:56.866Z,4.90
2022-09-04T22:43:14.493Z,4.73
2022-09-04T22:45:59.518Z,4.70
2022-09-04T22:48:23.623Z,4.33
2022-09-04T22:50:49.363Z,4.57
2022-09-04T22:53:29.136Z,4.20
2022-09-04T22:56:19.198Z,4.80
2022-09-04T22:58:27.319Z,4.53
2022-09-04T23:00:44.202Z,4.43
2022-09-04T23:03:15.894Z,4.60
2022-09-04T23:05:47.847Z,4.50
2022-09-04T23:13:43.116Z,4.70
2022-09-04T23:13:44.860Z,4.60
2022-09-04T23:13:56.457Z,5.03
2022-09-04T23:16:08.056Z,3.60
2022-09-04T23:24:21.245Z,4.33
2022-09-04T23:26:34.871Z,4.50
2022-09-04T23:26:50.719Z,4.03
2022-09-04T23:27:00.975Z,3.63
2022-09-04T23:29:24.756Z,4.30
2022-09-04T23:31:47.370Z,4.00
2022-09-04T23:34:14.058Z,4.77
2022-09-04T23:36:38.955Z,4.47
2022-09-04T23:39:27.246Z,4.50
2022-09-04T23:41:53.612Z,4.27
2022-09-04T23:44:34.093Z,5.07
2022-09-04T23:47:06.013Z,3.97
2022-09-04T23:49:33.715Z,3.87
2022-09-04T23:51:47.940Z,4.20
2022-09-04T23:53:59.366Z,4.20
2022-09-04T23:56:18.755Z,4.37
2022-09-04T23:58:53.914Z,4.20
